createdAt,value
2024-05-09T00:04:35.990Z,97028.44
2024-05-09T00:09:40.978Z,97033.31
2024-05-09T00:14:48.529Z,97031.13
2024-05-09T00:19:53.448Z,97036.22
2024-05-09T00:24:58.376Z,97043.75
2024-05-09T00:30:07.318Z,97036.78
2024-05-09T00:35:12.468Z,97031.13
2024-05-09T00:40:26.523Z,97034.59
2024-05-09T00:45:38.952Z,97028.44
2024-05-09T00:50:45.318Z,97032.75
2024-05-09T00:55:50.598Z,97031.94
2024-05-09T01:00:59.287Z,97036.22
2024-05-09T01:06:04.370Z,97030.06
2024-05-09T01:11:09.395Z,97028.44
2024-05-09T01:16:17.064Z,97036.00
2024-05-09T01:21:22.021Z,97030.34
2024-05-09T01:26:29.637Z,97026.56
2024-05-09T01:31:34.656Z,97029.53
2024-05-09T01:36:39.604Z,97032.22
2024-05-09T01:41:47.174Z,97030.34
2024-05-09T01:46:52.145Z,97030.34
2024-05-09T01:51:57.075Z,97027.94
2024-05-09T01:57:04.605Z,97028.44
2024-05-09T02:02:10.159Z,97022.59
2024-05-09T02:07:15.212Z,97020.69
2024-05-09T02:12:22.858Z,97030.63
2024-05-09T02:17:27.962Z,97023.94
2024-05-09T02:22:32.906Z,97031.19
2024-05-09T02:27:40.378Z,97026.34
2024-05-09T02:32:45.674Z,97037.06
2024-05-09T02:37:50.832Z,97031.19
2024-05-09T02:42:58.367Z,97037.63
2024-05-09T02:48:03.467Z,97038.72
2024-05-09T02:53:09.240Z,97034.94
2024-05-09T02:58:17.538Z,97027.16
2024-05-09T03:03:22.615Z,97029.28
2024-05-09T03:08:28.160Z,97022.34
2024-05-09T03:13:35.688Z,97023.44
2024-05-09T03:18:41.616Z,97020.75
2024-05-09T03:23:46.881Z,97019.41
2024-05-09T03:28:54.564Z,97026.66
2024-05-09T03:33:59.595Z,97023.19
2024-05-09T03:39:04.623Z,97024.25
2024-05-09T03:44:12.317Z,97024.78
2024-05-09T03:49:18.056Z,97035.00
2024-05-09T03:54:24.815Z,97038.47
2024-05-09T03:59:32.507Z,97039.53
2024-05-09T04:04:37.735Z,97044.38
2024-05-09T04:09:42.748Z,97048.16
2024-05-09T04:14:50.263Z,97047.34
2024-05-09T04:19:55.367Z,97046.25
2024-05-09T04:25:00.335Z,97047.34
2024-05-09T04:30:15.285Z,97056.69
2024-05-09T04:35:24.167Z,97069.06
2024-05-09T04:40:34.060Z,97064.50
2024-05-09T04:45:43.920Z,97066.38
2024-05-09T04:50:48.827Z,97072.53
2024-05-09T04:55:53.977Z,97061.31
2024-05-09T05:01:01.580Z,97061.81
2024-05-09T05:06:06.721Z,97062.91
2024-05-09T05:11:11.663Z,97064.78
2024-05-09T05:16:19.287Z,97068.50
2024-05-09T05:21:24.368Z,97076.56
2024-05-09T05:26:29.428Z,97074.16
2024-05-09T05:31:37.031Z,97078.97
2024-05-09T05:36:41.998Z,97070.16
2024-05-09T05:41:46.905Z,97081.94
2024-05-09T05:46:54.432Z,97090.00
2024-05-09T05:51:59.352Z,97078.72
2024-05-09T05:57:04.234Z,97088.94
2024-05-09T06:02:13.898Z,97100.19
2024-05-09T06:07:18.880Z,97098.28
2024-05-09T06:12:23.881Z,97091.88
2024-05-09T06:17:31.754Z,97096.44
2024-05-09T06:22:36.756Z,97098.34
2024-05-09T06:27:42.712Z,97101.81
2024-05-09T06:32:50.310Z,97101.25
2024-05-09T06:37:55.482Z,97100.97
2024-05-09T06:43:00.442Z,97100.72
2024-05-09T06:48:09.467Z,97101.50
2024-05-09T06:53:17.161Z,97103.16
2024-05-09T06:58:22.221Z,97109.81
2024-05-09T07:03:30.578Z,97104.75
2024-05-09T07:08:35.738Z,97109.00
2024-05-09T07:13:40.684Z,97102.34
2024-05-09T07:18:49.837Z,97097.78
2024-05-09T07:23:54.984Z,97106.91
2024-05-09T07:28:59.957Z,97102.34
2024-05-09T07:34:07.580Z,97098.03
2024-05-09T07:39:12.573Z,97097.78
2024-05-09T07:44:17.567Z,97090.00
2024-05-09T07:54:33.245Z,97083.53
2024-05-09T07:59:38.288Z,97086.78
2024-05-09T08:04:45.903Z,97083.00
2024-05-09T08:09:50.998Z,97087.56
2024-05-09T08:14:56.471Z,97089.19
2024-05-09T08:20:05.660Z,97075.78
2024-05-09T08:25:13.457Z,97066.94
2024-05-09T08:30:25.268Z,97060.50
2024-05-09T08:35:40.135Z,97055.94
2024-05-09T08:40:45.385Z,97048.69
2024-05-09T08:45:52.322Z,97051.88
2024-05-09T08:51:01.617Z,97048.94
2024-05-09T08:56:07.061Z,97040.38
2024-05-09T09:01:12.461Z,97050.03
2024-05-09T09:06:24.373Z,97047.84
2024-05-09T09:11:29.294Z,97048.66
2024-05-09T09:16:35.697Z,97048.41
2024-05-09T09:21:43.293Z,97048.91
2024-05-09T09:26:48.259Z,97040.31
2024-05-09T09:32:00.961Z,97039.50
2024-05-09T09:37:10.138Z,97046.19
2024-05-09T09:42:18.231Z,97040.56
2024-05-09T09:47:23.813Z,97037.28
2024-05-09T09:52:31.755Z,97037.28
2024-05-09T09:57:38.263Z,97036.50
2024-05-09T10:02:43.260Z,97039.97
2024-05-09T10:07:50.895Z,97037.28
2024-05-09T10:13:00.942Z,97030.88
2024-05-09T10:18:09.484Z,97026.31
2024-05-09T10:23:30.361Z,97033.25
2024-05-09T10:28:37.003Z,97023.31
2024-05-09T10:33:42.919Z,97020.66
2024-05-09T10:38:51.557Z,97011.50
2024-05-09T10:43:56.462Z,97003.75
2024-05-09T10:49:05.307Z,97008.31
2024-05-09T10:54:14.806Z,96998.94
2024-05-09T10:59:19.725Z,97000.28
2024-05-09T11:04:24.678Z,96998.09
2024-05-09T11:09:32.420Z,96998.09
2024-05-09T11:14:37.593Z,96992.47
2024-05-09T11:19:44.858Z,97002.13
2024-05-09T11:24:52.717Z,96992.47
2024-05-09T11:29:58.669Z,96983.06
2024-05-09T11:35:03.565Z,96983.06
2024-05-09T11:40:20.737Z,96977.44
2024-05-09T11:45:29.878Z,96973.41
2024-05-09T11:50:36.125Z,96965.38
2024-05-09T11:55:44.150Z,96963.47
2024-05-09T12:00:49.224Z,96959.75
2024-05-09T12:05:54.314Z,96950.09
2024-05-09T12:11:01.979Z,96946.34
2024-05-09T12:16:07.373Z,96942.84
2024-05-09T12:21:12.276Z,96935.31
2024-05-09T12:26:19.855Z,96939.09
2024-05-09T12:31:24.877Z,96936.13
2024-05-09T12:36:29.879Z,96938.78
2024-05-09T12:41:37.420Z,96933.44
2024-05-09T12:46:42.396Z,96929.16
2024-05-09T12:51:47.368Z,96917.34
2024-05-09T12:56:54.971Z,96917.88
2024-05-09T13:02:01.186Z,96921.34
2024-05-09T13:07:07.944Z,96905.53
2024-05-09T13:12:15.694Z,96915.97
2024-05-09T13:17:20.751Z,96907.94
2024-05-09T13:22:25.717Z,96909.00
2024-05-09T13:27:33.314Z,96913.00
2024-05-09T13:32:38.302Z,96904.16
2024-05-09T13:37:43.238Z,96899.59
2024-05-09T13:42:51.051Z,96895.81
2024-05-09T13:47:56.991Z,96879.75
2024-05-09T13:53:02.215Z,96876.25
2024-05-09T13:58:10.393Z,96872.78
2024-05-09T14:03:16.239Z,96883.25
2024-05-09T14:08:22.788Z,96874.91
2024-05-09T14:13:30.503Z,96867.16
2024-05-09T14:18:35.611Z,96866.84
2024-05-09T14:23:40.531Z,96860.69
2024-05-09T14:28:48.058Z,96844.88
2024-05-09T14:33:53.217Z,96853.44
2024-05-09T14:38:58.303Z,96841.91
2024-05-09T14:44:05.842Z,96845.41
2024-05-09T14:49:12.471Z,96843.50
2024-05-09T14:54:17.796Z,96840.03
2024-05-09T14:59:25.343Z,96836.56
2024-05-09T15:04:30.345Z,96838.16
2024-05-09T15:09:38.486Z,96837.34
2024-05-09T15:14:46.080Z,96833.56
2024-05-09T15:19:51.172Z,96833.56
2024-05-09T15:24:56.137Z,96836.25
2024-05-09T15:30:06.933Z,96831.69
2024-05-09T15:35:15.164Z,96833.56
2024-05-09T15:40:30.438Z,96840.53
2024-05-09T15:45:45.119Z,96830.91
2024-05-09T15:50:50.223Z,96829.81
2024-05-09T15:55:55.185Z,96829.53
2024-05-09T16:01:02.826Z,96826.63
2024-05-09T16:06:08.067Z,96834.38
2024-05-09T16:11:13.201Z,96833.81
2024-05-09T16:16:20.989Z,96826.06
2024-05-09T16:21:25.954Z,96829.53
2024-05-09T16:26:30.942Z,96828.75
2024-05-09T16:31:38.547Z,96816.13
2024-05-09T16:36:43.938Z,96824.66
2024-05-09T16:41:48.944Z,96815.81
2024-05-09T16:46:56.455Z,96819.03
2024-05-09T16:52:01.614Z,96816.91
2024-05-09T16:57:06.940Z,96813.16
2024-05-09T17:02:14.728Z,96810.19
2024-05-09T17:07:19.969Z,96810.19
2024-05-09T17:12:25.163Z,96811.25
2024-05-09T17:17:32.751Z,96798.38
2024-05-09T17:22:37.825Z,96801.63
2024-05-09T17:27:42.791Z,96804.31
2024-05-09T17:32:50.372Z,96814.72
2024-05-09T17:37:55.352Z,96833.81
2024-05-09T17:43:00.325Z,96813.94
2024-05-09T17:48:09.557Z,96817.16
2024-05-09T17:53:14.954Z,96830.81
2024-05-09T17:58:20.176Z,96828.97
2024-05-09T18:03:28.154Z,96832.44
2024-05-09T18:08:33.191Z,96834.34
2024-05-09T18:13:38.080Z,96837.81
2024-05-09T18:18:46.055Z,96846.91
2024-05-09T18:23:52.144Z,96849.91
2024-05-09T18:28:57.105Z,96856.06
2024-05-09T18:34:05.731Z,96845.34
2024-05-09T18:39:10.647Z,96850.69
2024-05-09T18:44:15.546Z,96845.34
2024-05-09T18:49:23.210Z,96844.84
2024-05-09T18:54:28.534Z,96839.75
2024-05-09T18:59:33.412Z,96837.34
2024-05-09T19:04:41.034Z,96845.69
2024-05-09T19:09:46.231Z,96850.22
2024-05-09T19:14:51.144Z,96851.06
2024-05-09T19:19:58.823Z,96860.69
2024-05-09T19:25:03.839Z,96859.09
2024-05-09T19:30:17.248Z,96868.75
2024-05-09T19:35:29.299Z,96869.84
2024-05-09T19:40:35.325Z,96884.03
2024-05-09T19:45:40.796Z,96872.22
2024-05-09T19:50:51.585Z,96878.38
2024-05-09T19:55:58.371Z,96878.38
2024-05-09T20:01:03.423Z,96880.75
2024-05-09T20:06:11.122Z,96876.22
2024-05-09T20:11:17.738Z,96881.59
2024-05-09T20:16:22.918Z,96871.91
2024-05-09T20:21:30.536Z,96883.75
2024-05-09T20:26:35.448Z,96886.13
2024-05-09T20:31:41.286Z,96889.91
2024-05-09T20:36:48.975Z,96892.31
2024-05-09T20:41:53.929Z,96897.16
2024-05-09T20:46:58.842Z,96895.00
2024-05-09T20:52:07.039Z,96890.69
2024-05-09T20:57:12.084Z,96889.91
2024-05-09T21:02:17.103Z,96890.69
2024-05-09T21:07:24.795Z,96892.31
2024-05-09T21:12:29.707Z,96888.81
2024-05-09T21:17:34.691Z,96887.22
2024-05-09T21:22:42.304Z,96887.22
2024-05-09T21:27:47.313Z,96887.50
2024-05-09T21:32:52.363Z,96886.97
2024-05-09T21:37:59.972Z,96886.47
2024-05-09T21:43:05.455Z,96886.75
2024-05-09T21:48:11.290Z,96894.78
2024-05-09T21:53:18.898Z,96886.75
2024-05-09T21:58:24.229Z,96884.66
2024-05-09T22:03:29.348Z,96886.25
2024-05-09T22:08:36.988Z,96884.66
2024-05-09T22:13:41.870Z,96881.44
2024-05-09T22:18:46.882Z,96879.06
2024-05-09T22:23:55.157Z,96889.25
2024-05-09T22:29:00.033Z,96895.41
2024-05-09T22:34:05.518Z,96892.72
2024-05-09T22:39:13.147Z,96893.81
2024-05-09T22:44:18.060Z,96893.03
2024-05-09T22:49:22.979Z,96888.47
2024-05-09T22:54:30.520Z,96896.50
2024-05-09T22:59:35.459Z,96893.81
2024-05-09T23:04:41.167Z,96892.50
2024-05-09T23:09:50.405Z,96890.66
2024-05-09T23:14:55.553Z,96888.75
2024-05-09T23:20:00.572Z,96883.66
2024-05-09T23:25:08.823Z,96893.88
2024-05-09T23:30:21.859Z,96885.84
2024-05-09T23:35:33.797Z,96889.31
2024-05-09T23:40:42.454Z,96884.25
2024-05-09T23:45:48.221Z,96879.94
2024-05-09T23:50:53.131Z,96863.06
2024-05-09T23:56:00.692Z,96874.59
